Главная страница
METAR-TAF:

METAR-TAF

Аэропорты :

Гранди-Натал

Натал, Риу-Гранди-ду-Норти, Бразилия

широта: 05-46-05S, долгота: 035-22-34W, высота над уровнем моря: 88 м

Текущие метеонаблюдения

Эта сводка был подготовлена 19 минут назад, в 23:00 UTC
Ветер 8 Узел от юго-юго-восточный
Температура 26°C
Влажность 79%
Давление 1012 hPa
Видимость 10 км и более
Отдельные облака на высоте 1900 фута

METAR: SBSG 182300Z 16008KT 9999 SCT019 26/22 Q1012

Время: 20:19 (23:19 UTC)

Прогноз

Эта сводка был подготовлена 8 часа и 19 минут назад, в 15:00 UTC
Прогноз действительный с 18-го 18 UTC до 19-го 18 UTC
Ветер 14 Узел от юго-восточный
Видимость 10 км и более
Отдельные облака на высоте 2000 фута
изменения
С 18-го 21 UTC до 18-го 22 UTC
Ветер 9 Узел от юго-юго-восточный
изменения
С 19-го 11 UTC до 19-го 12 UTC
Ветер 15 Узел от юго-восточный

TAF: SBSG 181500Z 1818/1918 14014KT 9999 SCT020 TN24/1908Z TX30/1915Z BECMG 1821/1822 16009KT BECMG 1911/1912 14015KT RMK PCN

Метеонаблюдения и прогнозы для более 4000 аэропортов (сводки METAR и TAF).

Имеющиеся станции представлены на карте желтыми и красными точками.

Чтобы увидеть название станции, наведите на нее мышь.

Затем щелкните, чтобы увидеть метеонаблюдения и метеопрогнозы.

Управление картой: чтобы увеличить масштаб, щелкните зеленые кнопки с черным крестиком; чтобы уменьшить масштаб, щелкните зеленую кнопку с тире; для просмотра соседних карт щелкайте зеленые стрелки.


METAR-TAF: